Time;durP1;ratioP1;P1;durP2;ratioP2;P2;SDS_P1;SDS_P2;PMS_P1;PMS_P2;Temp;Humidity;BMP_temperature;BMP_pressure;BME280_temperature;BME280_humidity;BME280_pressure;Samples;Min_cycle;Max_cycle;Signal;HPM_P1;HPM_P2
2021/12/04 00:01:54;;;;;;;75.43;33.95;;;4.10;99.90;;;;;;5073366;28;20080;-81
2021/12/04 00:04:42;;;;;;;67.93;30.80;;;4.10;99.90;;;;;;5056860;28;20048;-78
2021/12/04 00:07:09;;;;;;;40.42;21.45;;;4.20;99.90;;;;;;5073478;28;20044;-78
2021/12/04 00:09:36;;;;;;;62.80;28.88;;;4.10;99.90;;;;;;5056733;28;20048;-81
2021/12/04 00:12:04;;;;;;;54.60;27.88;;;4.10;99.90;;;;;;5056351;28;20123;-79
2021/12/04 00:14:31;;;;;;;65.40;30.65;;;4.10;99.90;;;;;;5056506;28;20154;-78
2021/12/04 00:16:57;;;;;;;50.38;22.75;;;4.00;99.90;;;;;;5073235;28;20101;-78
2021/12/04 00:19:24;;;;;;;59.40;25.25;;;4.20;99.90;;;;;;5023941;28;20402;-80
2021/12/04 00:21:50;;;;;;;54.80;24.75;;;4.10;99.90;;;;;;5072923;28;20048;-81
2021/12/04 00:24:17;;;;;;;57.17;26.48;;;4.00;99.90;;;;;;5056701;28;20102;-81
2021/12/04 00:26:45;;;;;;;72.95;30.88;;;4.00;99.90;;;;;;5073160;28;20538;-81
2021/12/04 00:29:11;;;;;;;52.67;23.50;;;4.10;99.90;;;;;;5056370;28;20071;-81
2021/12/04 00:31:40;;;;;;;106.63;37.35;;;4.20;99.90;;;;;;5056488;28;20052;-81
2021/12/04 00:34:06;;;;;;;122.03;40.05;;;4.10;99.90;;;;;;5056129;28;20051;-81
2021/12/04 00:36:58;;;;;;;138.77;41.22;;;4.00;99.90;;;;;;5056439;28;20044;-78
2021/12/04 00:50:35;;;;;;;94.78;31.83;;;4.10;99.90;;;;;;5072465;28;20060;-81
2021/12/04 00:53:01;;;;;;;107.40;33.83;;;4.00;99.90;;;;;;5055773;28;20074;-78
2021/12/04 00:55:27;;;;;;;100.85;34.55;;;4.00;99.90;;;;;;5055794;28;20048;-81
2021/12/04 00:57:52;;;;;;;108.75;35.10;;;4.10;99.90;;;;;;5072440;28;20055;-78
2021/12/04 01:00:19;;;;;;;85.75;26.85;;;4.10;99.90;;;;;;5055633;28;20055;-80
2021/12/04 01:02:45;;;;;;;109.57;33.00;;;4.00;99.90;;;;;;5039437;28;20511;-78
2021/12/04 01:05:11;;;;;;;96.68;30.20;;;4.00;99.90;;;;;;5072479;28;20044;-80
2021/12/04 01:07:37;;;;;;;143.65;40.13;;;4.20;99.90;;;;;;5055607;28;20050;-78
2021/12/04 01:10:06;;;;;;;49.03;21.38;;;4.10;99.90;;;;;;5072102;28;20044;-77
2021/12/04 01:12:32;;;;;;;88.60;29.33;;;4.00;99.90;;;;;;5072156;28;20044;-77
2021/12/04 01:14:58;;;;;;;98.72;32.53;;;4.30;99.90;;;;;;5071880;28;20280;-81
2021/12/04 01:17:24;;;;;;;126.82;36.33;;;4.00;99.90;;;;;;5055474;28;20048;-78
2021/12/04 01:19:50;;;;;;;86.07;28.00;;;4.00;99.90;;;;;;5072213;28;20086;-78
2021/12/04 01:22:19;;;;;;;161.65;41.22;;;4.10;99.90;;;;;;5055075;28;20040;-81
2021/12/04 01:24:45;;;;;;;44.33;19.02;;;4.10;99.90;;;;;;5071498;28;20132;-81
2021/12/04 01:27:13;;;;;;;58.58;23.42;;;4.00;99.90;;;;;;5071989;28;20040;-77
2021/12/04 01:29:42;;;;;;;178.90;42.47;;;3.90;99.90;;;;;;5072224;28;20427;-78
2021/12/04 01:32:09;;;;;;;100.93;30.55;;;4.10;99.90;;;;;;5038963;28;20048;-81
2021/12/04 01:34:36;;;;;;;192.02;43.97;;;4.10;99.90;;;;;;5071853;28;20052;-80
2021/12/04 01:37:03;;;;;;;182.65;43.53;;;4.00;99.90;;;;;;5071888;28;20132;-77
2021/12/04 01:39:28;;;;;;;138.80;34.72;;;3.90;99.90;;;;;;5071818;28;20047;-78
2021/12/04 01:41:54;;;;;;;97.00;30.02;;;4.00;99.90;;;;;;5038440;28;20044;-78
2021/12/04 01:44:20;;;;;;;165.73;41.00;;;4.10;99.90;;;;;;5038508;28;20037;-81
2021/12/04 01:46:46;;;;;;;167.98;39.83;;;3.90;99.90;;;;;;5071830;28;20075;-81
2021/12/04 01:49:12;;;;;;;94.50;26.13;;;4.00;99.90;;;;;;5071890;28;20044;-81
2021/12/04 01:51:38;;;;;;;94.55;26.58;;;4.10;99.90;;;;;;5071882;28;20560;-78
2021/12/04 01:54:04;;;;;;;72.07;22.52;;;4.20;99.90;;;;;;5071322;28;20103;-80
2021/12/04 01:56:31;;;;;;;108.90;30.05;;;3.90;99.90;;;;;;5054817;28;20037;-78
2021/12/04 01:58:57;;;;;;;82.32;23.98;;;4.00;99.90;;;;;;5071751;28;20056;-81
2021/12/04 02:01:23;;;;;;;48.75;18.83;;;3.90;99.90;;;;;;5054742;28;20126;-78
2021/12/04 02:03:49;;;;;;;118.93;29.90;;;3.90;99.90;;;;;;5038307;28;20079;-78
2021/12/04 02:06:14;;;;;;;126.05;31.70;;;4.20;99.90;;;;;;5054994;28;20041;-81
2021/12/04 02:08:43;;;;;;;229.15;44.58;;;4.10;99.90;;;;;;5038202;28;20406;-78
2021/12/04 02:11:09;;;;;;;132.98;32.58;;;4.00;99.90;;;;;;5054737;28;20124;-81
2021/12/04 02:13:34;;;;;;;162.35;37.80;;;3.90;99.90;;;;;;5071216;28;20586;-77
2021/12/04 02:16:03;;;;;;;114.97;30.08;;;4.00;99.90;;;;;;5054797;28;20045;-77
2021/12/04 02:18:29;;;;;;;206.70;40.38;;;4.00;99.90;;;;;;5054819;28;20483;-81
2021/12/04 02:20:55;;;;;;;140.88;32.75;;;3.90;99.90;;;;;;5071254;28;20044;-78
2021/12/04 02:23:21;;;;;;;136.38;29.25;;;4.10;99.90;;;;;;5071213;28;20098;-78
2021/12/04 02:25:47;;;;;;;120.18;29.35;;;4.00;99.90;;;;;;5054650;28;20036;-81
2021/12/04 02:28:13;;;;;;;162.43;32.28;;;4.00;99.90;;;;;;5037741;28;20445;-81
2021/12/04 02:30:43;;;;;;;126.80;27.95;;;3.90;99.90;;;;;;5071236;28;20041;-80
2021/12/04 02:33:12;;;;;;;66.07;19.83;;;3.90;99.90;;;;;;5071015;28;20059;-81
2021/12/04 02:35:45;;;;;;;172.10;33.95;;;4.00;99.90;;;;;;5071896;28;20056;-81
2021/12/04 02:38:11;;;;;;;141.80;29.15;;;3.90;99.90;;;;;;5074999;28;20079;-77
2021/12/04 02:40:37;;;;;;;122.28;27.83;;;4.00;99.90;;;;;;5041978;28;20040;-78
2021/12/04 02:43:04;;;;;;;54.53;15.77;;;3.90;99.90;;;;;;5041928;28;20048;-81
2021/12/04 02:45:29;;;;;;;62.40;17.48;;;4.10;99.90;;;;;;5074827;28;20040;-78
2021/12/04 02:47:56;;;;;;;50.25;16.70;;;4.00;99.90;;;;;;5074721;28;20094;-81
2021/12/04 02:50:21;;;;;;;102.00;26.98;;;3.90;99.90;;;;;;5058110;28;20098;-78
2021/12/04 02:52:47;;;;;;;87.32;20.60;;;4.10;99.90;;;;;;5074675;28;20491;-80
2021/12/04 02:55:16;;;;;;;150.90;30.55;;;4.00;99.90;;;;;;5074552;28;20060;-78
2021/12/04 02:57:44;;;;;;;152.30;31.52;;;3.90;99.90;;;;;;5074587;28;20098;-78
2021/12/04 03:00:22;;;;;;;89.45;23.60;;;3.90;99.90;;;;;;5074543;28;20171;-81
2021/12/04 03:02:48;;;;;;;128.48;27.67;;;3.90;99.90;;;;;;5058114;28;20124;-78
2021/12/04 03:05:21;;;;;;;137.65;29.10;;;3.90;99.90;;;;;;5057994;28;20127;-81
2021/12/04 03:07:46;;;;;;;206.47;35.17;;;3.90;99.90;;;;;;5074667;28;20445;-78
2021/12/04 03:10:12;;;;;;;116.32;25.85;;;4.00;99.90;;;;;;5074597;28;20123;-78
2021/12/04 03:12:40;;;;;;;69.20;17.15;;;3.90;99.90;;;;;;5057481;28;20071;-81
2021/12/04 03:15:07;;;;;;;158.35;31.52;;;3.90;99.90;;;;;;5074170;28;20105;-81
2021/12/04 03:17:33;;;;;;;37.53;16.83;;;3.80;99.90;;;;;;5074165;28;20063;-77
2021/12/04 03:19:59;;;;;;;54.15;19.17;;;3.90;99.90;;;;;;5074475;28;20490;-78
2021/12/04 03:22:26;;;;;;;192.50;35.78;;;3.80;99.90;;;;;;5057379;28;20053;-81
2021/12/04 03:24:52;;;;;;;104.80;23.98;;;3.90;99.90;;;;;;5074107;28;20033;-81
2021/12/04 03:27:19;;;;;;;79.18;22.83;;;3.90;99.90;;;;;;5073944;28;20048;-81
2021/12/04 03:30:07;;;;;;;117.13;27.23;;;3.80;99.90;;;;;;5057610;28;20049;-78
2021/12/04 03:41:06;;;;;;;72.28;21.90;;;3.90;99.90;;;;;;5067646;28;20052;-78
2021/12/04 03:43:32;;;;;;;35.13;13.13;;;4.00;99.90;;;;;;5057626;28;20074;-77
2021/12/04 03:46:00;;;;;;;95.18;25.67;;;3.90;99.90;;;;;;5057320;28;20488;-77
2021/12/04 03:51:01;;;;;;;82.88;21.88;;;3.90;99.90;;;;;;5073590;28;20088;-81
2021/12/04 03:53:28;;;;;;;36.55;13.13;;;3.80;99.90;;;;;;5073280;28;20056;-77
2021/12/04 03:55:54;;;;;;;35.72;12.57;;;3.90;99.90;;;;;;5073657;28;20045;-81
2021/12/04 03:58:20;;;;;;;54.00;20.40;;;3.90;99.90;;;;;;5073455;28;20391;-78
2021/12/04 04:00:46;;;;;;;105.10;28.48;;;3.90;99.90;;;;;;5024006;28;20056;-80
2021/12/04 04:03:13;;;;;;;48.10;13.73;;;3.80;99.90;;;;;;5073461;28;20087;-77
2021/12/04 04:05:38;;;;;;;42.90;16.35;;;3.90;99.90;;;;;;5073759;28;20045;-77
2021/12/04 04:08:04;;;;;;;37.13;13.38;;;3.90;99.90;;;;;;5040030;28;20513;-77
2021/12/04 04:10:30;;;;;;;28.70;11.80;;;3.90;99.90;;;;;;5040346;28;20127;-77
2021/12/04 04:12:56;;;;;;;36.53;14.65;;;3.80;99.90;;;;;;5056486;28;20087;-77
2021/12/04 04:15:22;;;;;;;47.75;15.43;;;3.80;99.90;;;;;;5056813;28;20032;-80
2021/12/04 04:17:49;;;;;;;50.45;17.67;;;3.80;99.90;;;;;;5056429;28;20124;-80
2021/12/04 04:20:18;;;;;;;59.47;18.63;;;3.90;99.90;;;;;;5056352;28;20050;-80
2021/12/04 04:22:45;;;;;;;36.40;14.40;;;3.90;99.90;;;;;;5056443;28;20076;-80
2021/12/04 04:25:12;;;;;;;45.47;16.13;;;3.80;99.90;;;;;;5056275;28;20048;-80
2021/12/04 04:27:38;;;;;;;80.80;22.70;;;3.90;99.90;;;;;;5072839;28;20048;-80
2021/12/04 04:30:10;;;;;;;39.17;14.75;;;3.80;99.90;;;;;;5073112;28;20395;-80
2021/12/04 04:32:36;;;;;;;99.25;23.42;;;3.90;99.90;;;;;;5056139;28;20086;-77
2021/12/04 04:35:09;;;;;;;127.88;26.33;;;3.80;99.90;;;;;;5056009;28;20110;-77
2021/12/04 04:59:48;;;;;;;55.90;18.00;;;3.90;99.90;;;;;;5071880;28;20145;-77
2021/12/04 05:13:07;;;;;;;51.50;17.02;;;3.90;99.90;;;;;;5057737;28;20484;-76
2021/12/04 05:15:46;;;;;;;47.78;17.13;;;3.80;99.90;;;;;;5072011;28;20076;-80
2021/12/04 05:20:41;;;;;;;24.83;9.82;;;3.80;99.90;;;;;;5072271;28;20490;-80
2021/12/04 05:23:10;;;;;;;61.90;18.90;;;3.80;99.90;;;;;;5055455;28;20053;-80
2021/12/04 05:25:36;;;;;;;23.75;10.70;;;3.70;99.90;;;;;;5055238;28;20052;-80
2021/12/04 05:28:06;;;;;;;55.38;17.52;;;3.70;99.90;;;;;;5055039;28;20051;-77
2021/12/04 05:30:33;;;;;;;67.22;20.30;;;3.70;99.90;;;;;;5055149;28;20052;-81
2021/12/04 05:32:59;;;;;;;51.75;15.35;;;3.80;99.90;;;;;;5071994;28;20380;-80
2021/12/04 05:35:25;;;;;;;53.45;17.27;;;3.80;99.90;;;;;;5071752;28;20103;-80
2021/12/04 05:37:50;;;;;;;37.50;13.68;;;3.70;99.90;;;;;;5071957;28;20475;-80
2021/12/04 05:40:16;;;;;;;50.42;17.02;;;3.80;99.90;;;;;;5055432;28;20037;-77
2021/12/04 05:42:43;;;;;;;31.98;11.90;;;3.70;99.90;;;;;;5038270;28;20072;-77
2021/12/04 05:45:29;;;;;;;34.90;13.45;;;3.60;99.90;;;;;;5071941;28;20094;-77
2021/12/04 05:48:15;;;;;;;22.27;11.05;;;3.60;99.90;;;;;;5057589;28;20051;-77
2021/12/04 05:53:19;;;;;;;37.85;13.85;;;3.80;99.90;;;;;;5071732;28;20045;-80
2021/12/04 05:55:58;;;;;;;28.00;11.27;;;3.70;99.90;;;;;;5054865;28;20442;-80
2021/12/04 05:58:32;;;;;;;24.33;10.23;;;3.60;99.90;;;;;;5071834;28;20075;-80
2021/12/04 06:01:01;;;;;;;23.63;8.55;;;3.80;99.90;;;;;;5054978;28;20145;-77
2021/12/04 06:03:28;;;;;;;27.67;13.02;;;3.60;99.90;;;;;;5071521;28;20047;-80
2021/12/04 06:05:54;;;;;;;20.42;9.43;;;3.60;99.90;;;;;;5038229;28;20053;-77
2021/12/04 06:08:20;;;;;;;35.22;14.68;;;3.60;99.90;;;;;;5038510;28;20080;-81
2021/12/04 06:10:48;;;;;;;52.70;17.08;;;3.80;99.90;;;;;;5057676;28;20147;-79
2021/12/04 06:13:13;;;;;;;37.58;14.25;;;3.70;99.90;;;;;;5075212;28;20099;-77
2021/12/04 06:15:39;;;;;;;42.70;16.30;;;3.70;99.90;;;;;;5058818;28;20040;-77
2021/12/04 06:18:07;;;;;;;40.78;14.00;;;3.70;99.90;;;;;;5075332;28;20483;-77
2021/12/04 06:23:19;;;;;;;28.10;10.68;;;3.80;99.90;;;;;;5061322;28;20123;-81
2021/12/04 06:25:45;;;;;;;42.92;15.88;;;3.70;99.90;;;;;;5058463;28;20037;-81
2021/12/04 06:28:11;;;;;;;26.20;9.98;;;3.60;99.90;;;;;;5042057;28;20048;-77
2021/12/04 06:30:39;;;;;;;38.17;15.48;;;3.80;99.90;;;;;;5058582;28;20044;-77
2021/12/04 06:33:07;;;;;;;35.53;14.43;;;3.80;99.90;;;;;;5042273;28;20499;-80
2021/12/04 06:35:36;;;;;;;48.40;16.65;;;3.80;99.90;;;;;;5075430;28;20044;-77
2021/12/04 06:38:02;;;;;;;30.75;12.27;;;3.90;99.90;;;;;;5075327;28;20084;-77
2021/12/04 06:40:28;;;;;;;33.60;11.07;;;3.80;99.90;;;;;;5058233;28;20040;-80
2021/12/04 06:42:59;;;;;;;57.35;18.58;;;3.80;99.90;;;;;;5025296;28;20036;-81
2021/12/04 06:45:27;;;;;;;54.88;19.15;;;3.80;99.90;;;;;;5058205;28;20080;-80
2021/12/04 06:47:57;;;;;;;57.67;17.55;;;3.80;99.90;;;;;;5058587;28;20127;-77
2021/12/04 06:52:57;;;;;;;96.90;23.73;;;3.90;99.90;;;;;;5043372;28;20083;-80
2021/12/04 06:55:27;;;;;;;88.60;22.77;;;3.80;99.90;;;;;;5041786;28;20094;-80
2021/12/04 06:57:53;;;;;;;51.33;15.95;;;3.80;99.90;;;;;;5058646;28;20048;-80
2021/12/04 07:00:19;;;;;;;63.38;21.48;;;3.70;99.90;;;;;;5041325;28;20041;-80
2021/12/04 07:02:45;;;;;;;85.03;21.77;;;3.80;99.90;;;;;;5058086;28;20502;-80
2021/12/04 07:05:11;;;;;;;85.90;22.58;;;3.90;99.90;;;;;;5074520;28;20048;-77
2021/12/04 07:07:36;;;;;;;38.00;12.90;;;3.80;99.90;;;;;;5074621;28;20475;-80
2021/12/04 07:10:03;;;;;;;109.10;24.52;;;3.80;99.90;;;;;;5057818;28;20044;-79
2021/12/04 07:12:29;;;;;;;109.38;23.88;;;3.80;99.90;;;;;;5074551;28;20491;-77
2021/12/04 07:14:55;;;;;;;88.80;20.80;;;3.70;99.90;;;;;;5074339;28;20051;-80
2021/12/04 07:17:20;;;;;;;126.80;25.90;;;3.70;99.90;;;;;;5074263;28;20041;-78
2021/12/04 07:19:46;;;;;;;172.57;29.73;;;3.80;99.90;;;;;;5074672;28;20041;-80
2021/12/04 07:22:12;;;;;;;139.02;25.88;;;3.70;99.90;;;;;;5023810;28;20048;-80
2021/12/04 07:24:38;;;;;;;146.65;29.00;;;3.70;99.90;;;;;;5074215;28;20040;-80
2021/12/04 07:27:05;;;;;;;119.03;23.30;;;3.80;99.90;;;;;;5040686;28;20043;-77
2021/12/04 07:29:31;;;;;;;157.20;26.92;;;3.70;99.90;;;;;;5074228;28;20083;-78
2021/12/04 07:31:57;;;;;;;128.60;25.40;;;3.70;99.90;;;;;;5057567;28;20448;-80
2021/12/04 07:34:23;;;;;;;183.10;29.45;;;3.70;99.90;;;;;;5073797;28;20056;-80
2021/12/04 07:36:49;;;;;;;88.50;18.83;;;3.70;99.90;;;;;;5073826;28;20098;-80
2021/12/04 07:39:15;;;;;;;124.20;22.85;;;3.70;99.90;;;;;;5074018;28;20040;-80
2021/12/04 07:41:42;;;;;;;145.48;25.70;;;3.70;99.90;;;;;;5073853;28;20055;-80
2021/12/04 07:44:10;;;;;;;106.43;22.10;;;3.70;99.90;;;;;;5057483;28;20037;-80
2021/12/04 07:46:38;;;;;;;122.82;24.67;;;3.80;99.90;;;;;;5074022;28;20486;-80
2021/12/04 07:49:04;;;;;;;96.40;21.42;;;3.80;99.90;;;;;;5057367;28;20064;-80
2021/12/04 07:51:30;;;;;;;147.52;28.88;;;3.80;99.90;;;;;;5057087;28;20391;-77
2021/12/04 07:53:55;;;;;;;140.57;26.58;;;3.80;99.90;;;;;;5056369;28;20040;-80
2021/12/04 07:56:21;;;;;;;142.30;27.88;;;3.80;99.90;;;;;;5073604;28;20557;-78
2021/12/04 07:58:48;;;;;;;149.40;26.48;;;3.80;99.90;;;;;;5056885;28;20072;-79
2021/12/04 08:01:13;;;;;;;143.00;27.50;;;3.90;99.90;;;;;;5040084;28;20040;-80
2021/12/04 08:03:39;;;;;;;174.95;28.85;;;3.80;99.90;;;;;;5073819;28;20489;-77
2021/12/04 08:06:06;;;;;;;179.70;29.42;;;3.70;99.90;;;;;;5056998;28;20045;-77
2021/12/04 08:08:32;;;;;;;148.85;28.33;;;3.70;99.90;;;;;;5073637;28;20506;-80
2021/12/04 08:10:58;;;;;;;176.63;30.65;;;3.90;99.90;;;;;;5056962;28;20119;-77
2021/12/04 08:13:24;;;;;;;170.20;31.00;;;3.90;99.90;;;;;;5056461;28;20040;-77
2021/12/04 08:15:49;;;;;;;198.93;33.67;;;3.80;99.90;;;;;;5073130;28;20106;-77
2021/12/04 08:18:15;;;;;;;137.60;28.20;;;3.80;99.90;;;;;;5040049;28;20049;-77
2021/12/04 08:20:41;;;;;;;121.32;27.73;;;4.00;99.90;;;;;;5073113;28;20127;-78
2021/12/04 08:23:08;;;;;;;127.65;27.50;;;4.00;99.90;;;;;;5072921;28;20080;-77
2021/12/04 08:25:34;;;;;;;124.07;25.95;;;3.90;99.90;;;;;;5056608;28;20039;-77
2021/12/04 08:28:00;;;;;;;112.75;26.42;;;3.80;99.90;;;;;;5072796;28;20088;-78
2021/12/04 08:30:29;;;;;;;122.75;28.13;;;4.00;99.90;;;;;;5023354;28;20045;-81
2021/12/04 08:32:56;;;;;;;104.30;24.67;;;3.90;99.90;;;;;;5072333;28;20422;-78
2021/12/04 08:35:25;;;;;;;117.47;27.55;;;4.00;99.90;;;;;;5072314;28;20174;-78
2021/12/04 08:37:52;;;;;;;109.32;26.58;;;4.00;99.90;;;;;;5072476;28;20128;-77
2021/12/04 08:40:18;;;;;;;104.03;25.83;;;3.90;99.90;;;;;;5055891;28;20051;-77
2021/12/04 08:42:46;;;;;;;120.63;28.27;;;3.90;99.90;;;;;;5056069;28;20040;-80
2021/12/04 08:45:15;;;;;;;123.47;27.42;;;4.10;99.90;;;;;;5072902;28;20407;-80
2021/12/04 08:47:41;;;;;;;104.68;25.20;;;3.90;99.90;;;;;;5072676;28;20048;-80
2021/12/04 08:50:11;;;;;;;119.10;29.35;;;4.10;99.90;;;;;;5072495;28;20041;-78
2021/12/04 08:52:38;;;;;;;106.20;27.60;;;4.00;99.90;;;;;;5055730;28;20051;-77
2021/12/04 08:55:05;;;;;;;98.20;22.90;;;4.00;99.90;;;;;;5022723;28;20060;-80
2021/12/04 08:57:31;;;;;;;90.95;24.73;;;4.10;99.90;;;;;;5039298;28;20050;-77
2021/12/04 08:59:57;;;;;;;101.70;25.73;;;3.90;99.90;;;;;;5039485;28;20048;-79
2021/12/04 09:02:23;;;;;;;105.00;24.40;;;4.00;99.90;;;;;;5039106;28;20098;-77
2021/12/04 09:04:50;;;;;;;97.88;25.20;;;3.90;99.90;;;;;;5055737;28;20040;-80
2021/12/04 09:07:18;;;;;;;85.40;23.40;;;4.10;99.90;;;;;;5055415;28;20040;-78
2021/12/04 09:09:45;;;;;;;97.10;26.15;;;4.00;99.90;;;;;;5039576;28;20040;-77
2021/12/04 09:12:15;;;;;;;74.47;23.10;;;4.10;99.90;;;;;;5055584;28;20558;-78
2021/12/04 09:14:44;;;;;;;87.90;24.23;;;4.10;99.90;;;;;;5055294;28;20044;-80
2021/12/04 09:17:13;;;;;;;74.25;21.92;;;3.90;99.90;;;;;;5071846;28;20048;-77
2021/12/04 09:19:38;;;;;;;78.63;22.90;;;4.20;99.90;;;;;;5071967;28;20078;-81
2021/12/04 09:22:07;;;;;;;62.25;20.45;;;4.00;99.90;;;;;;5071875;28;20052;-80
2021/12/04 09:24:41;;;;;;;65.30;20.42;;;3.90;99.90;;;;;;5055369;28;20044;-79
2021/12/04 09:27:14;;;;;;;70.72;22.45;;;4.10;99.90;;;;;;5056195;28;20082;-79
2021/12/04 09:30:09;;;;;;;69.07;20.33;;;4.00;99.90;;;;;;5071944;28;20101;-79
2021/12/04 10:05:04;;;;;;;36.60;15.25;;;4.00;99.90;;;;;;5057345;28;20479;-77
2021/12/04 10:13:24;;;;;;;26.75;12.43;;;4.30;99.90;;;;;;5071352;28;20251;-80
2021/12/04 10:21:15;;;;;;;35.13;15.38;;;4.10;99.90;;;;;;5071517;28;20086;-79
2021/12/04 10:24:04;;;;;;;24.55;13.88;;;4.10;99.90;;;;;;5056073;28;20045;-80
2021/12/04 10:35:09;;;;;;;32.40;14.95;;;4.20;99.90;;;;;;5071412;28;20109;-80
2021/12/04 10:37:57;;;;;;;25.83;13.57;;;4.40;99.90;;;;;;5071153;28;20040;-80
2021/12/04 10:40:27;;;;;;;27.02;14.13;;;4.10;99.90;;;;;;5054632;28;20051;-77
2021/12/04 10:42:58;;;;;;;25.23;13.68;;;4.30;99.90;;;;;;5071046;28;20041;-80
2021/12/04 10:45:37;;;;;;;30.30;15.00;;;4.30;99.90;;;;;;5071342;28;20437;-77
2021/12/04 10:48:12;;;;;;;23.10;12.55;;;4.20;99.90;;;;;;5071035;28;20124;-78
2021/12/04 10:51:01;;;;;;;27.63;15.05;;;4.20;99.90;;;;;;5070938;28;20114;-80
2021/12/04 10:53:33;;;;;;;20.23;11.85;;;4.30;99.90;;;;;;5070865;28;20048;-80
2021/12/04 11:04:39;;;;;;;28.73;15.07;;;4.40;99.90;;;;;;5074637;28;20053;-80
2021/12/04 11:35:14;;;;;;;31.58;17.00;;;4.50;99.90;;;;;;5074030;28;20056;-78
2021/12/04 11:42:55;;;;;;;29.60;17.98;;;4.40;99.90;;;;;;5074049;28;20108;-81
2021/12/04 11:45:31;;;;;;;32.72;17.50;;;4.40;99.90;;;;;;5074173;28;20580;-78
2021/12/04 11:47:59;;;;;;;25.60;13.98;;;4.60;99.90;;;;;;5073711;28;20114;-77
2021/12/04 11:50:37;;;;;;;26.42;14.60;;;4.60;99.90;;;;;;5056926;28;20040;-78
2021/12/04 11:53:10;;;;;;;25.40;13.90;;;4.50;99.90;;;;;;5073560;28;20086;-81
2021/12/04 11:55:41;;;;;;;22.40;13.33;;;4.60;99.90;;;;;;5073219;28;20052;-81
2021/12/04 11:58:24;;;;;;;24.08;13.02;;;4.60;99.90;;;;;;5073532;28;20053;-78
2021/12/04 12:00:52;;;;;;;;;;;4.70;99.90;;;;;;5057227;28;20053;-81
2021/12/04 12:03:24;;;;;;;21.10;12.45;;;4.60;99.90;;;;;;5073438;28;19920;-80
2021/12/04 12:05:59;;;;;;;21.40;12.38;;;4.60;99.90;;;;;;5056726;28;20123;-78
2021/12/04 12:08:34;;;;;;;20.95;12.50;;;4.60;99.90;;;;;;5056704;28;20087;-78
2021/12/04 12:11:31;;;;;;;23.70;14.27;;;4.50;99.90;;;;;;5073515;28;20110;-81
2021/12/04 12:13:58;;;;;;;23.08;13.63;;;4.50;99.90;;;;;;5072975;28;20503;-81
2021/12/04 12:16:29;;;;;;;24.35;13.73;;;4.40;99.90;;;;;;5073453;28;20514;-81
2021/12/04 12:19:07;;;;;;;24.80;13.48;;;4.50;99.90;;;;;;5056534;28;20052;-81
2021/12/04 12:21:58;;;;;;;23.83;13.23;;;4.50;99.90;;;;;;5056478;28;20044;-78
2021/12/04 12:33:33;;;;;;;26.45;13.88;;;4.60;99.90;;;;;;5072695;28;20052;-79
2021/12/04 12:36:19;;;;;;;28.35;17.25;;;4.60;99.90;;;;;;5072801;28;20083;-82
2021/12/04 12:38:51;;;;;;;37.17;18.40;;;4.70;99.90;;;;;;5056117;28;20041;-83
2021/12/04 12:41:35;;;;;;;30.73;14.32;;;4.60;99.90;;;;;;5056000;28;20083;-78
2021/12/04 12:44:09;;;;;;;31.95;14.30;;;4.70;99.90;;;;;;5072944;28;20530;-83
2021/12/04 12:46:38;;;;;;;33.42;18.77;;;4.70;99.90;;;;;;5055856;28;20048;-78
2021/12/04 12:49:15;;;;;;;27.85;15.68;;;4.70;99.90;;;;;;5072646;28;20395;-82
2021/12/04 12:51:44;;;;;;;29.40;16.27;;;4.60;99.90;;;;;;5056109;28;20055;-83
2021/12/04 12:54:21;;;;;;;34.20;16.10;;;4.50;99.90;;;;;;5072142;28;20044;-82
2021/12/04 12:56:47;;;;;;;28.33;15.20;;;4.60;99.90;;;;;;5072383;28;20154;-84
2021/12/04 12:59:32;;;;;;;29.95;14.60;;;4.70;99.90;;;;;;5039203;28;20044;-83
2021/12/04 13:13:24;;;;;;;48.10;19.52;;;4.50;99.90;;;;;;5071922;28;20123;-79
2021/12/04 13:15:52;;;;;;;48.35;18.80;;;4.40;99.90;;;;;;5071927;28;20094;-82
2021/12/04 13:18:24;;;;;;;36.92;18.45;;;4.40;99.90;;;;;;5055218;28;20044;-78
2021/12/04 13:20:52;;;;;;;39.67;17.02;;;4.50;99.90;;;;;;5055073;28;20155;-82
2021/12/04 13:23:23;;;;;;;46.13;18.58;;;4.50;99.90;;;;;;5071835;28;20040;-78
2021/12/04 13:25:51;;;;;;;42.50;19.00;;;4.40;99.90;;;;;;5038769;28;20045;-78
2021/12/04 13:28:20;;;;;;;48.47;20.00;;;4.50;99.90;;;;;;5055342;28;20044;-79
2021/12/04 13:30:46;;;;;;;48.90;19.45;;;4.50;99.90;;;;;;5071803;28;20080;-84
2021/12/04 13:33:12;;;;;;;44.25;18.75;;;4.50;99.90;;;;;;5055040;28;20044;-79
2021/12/04 13:35:38;;;;;;;43.60;20.35;;;4.60;99.90;;;;;;5038447;28;20410;-78
2021/12/04 13:38:05;;;;;;;50.60;20.50;;;4.40;99.90;;;;;;5038731;28;20048;-83
2021/12/04 13:40:31;;;;;;;45.67;19.77;;;4.50;99.90;;;;;;5038859;28;20525;-78
2021/12/04 13:42:57;;;;;;;42.50;18.75;;;4.40;99.90;;;;;;5054766;28;20044;-80
2021/12/04 13:45:23;;;;;;;47.80;19.33;;;4.70;99.90;;;;;;5071579;28;20059;-83
2021/12/04 13:47:55;;;;;;;48.10;20.77;;;4.50;99.90;;;;;;5054967;28;20044;-82
2021/12/04 13:53:12;;;;;;;42.53;18.77;;;4.60;99.90;;;;;;5071498;28;20113;-78
2021/12/04 13:55:40;;;;;;;48.83;18.38;;;4.50;99.90;;;;;;5054571;28;20522;-77
2021/12/04 13:58:06;;;;;;;42.20;18.67;;;4.40;99.90;;;;;;5071615;28;20060;-77
2021/12/04 14:00:32;;;;;;;44.10;18.67;;;4.50;99.90;;;;;;5054711;28;20041;-77
2021/12/04 14:02:58;;;;;;;43.63;17.58;;;4.50;99.90;;;;;;5038071;28;20067;-82
2021/12/04 14:05:26;;;;;;;45.53;19.15;;;4.50;99.90;;;;;;5071483;28;20049;-77
2021/12/04 14:07:55;;;;;;;42.13;18.48;;;4.40;99.90;;;;;;5055084;28;20053;-77
2021/12/04 14:10:27;;;;;;;40.72;18.10;;;4.80;99.90;;;;;;5054940;28;20052;-81
2021/12/04 14:12:54;;;;;;;42.58;18.58;;;4.50;99.90;;;;;;5071346;28;20098;-80
2021/12/04 14:15:22;;;;;;;44.20;18.98;;;4.40;99.90;;;;;;5054486;28;20048;-80
2021/12/04 14:18:18;;;;;;;44.72;18.98;;;4.50;99.90;;;;;;5071232;28;20057;-80
2021/12/04 14:20:51;;;;;;;56.00;20.42;;;4.70;99.90;;;;;;5067215;28;20061;-81
2021/12/04 14:23:17;;;;;;;47.70;19.50;;;4.50;99.90;;;;;;5071102;28;20044;-82
2021/12/04 14:25:44;;;;;;;56.28;19.77;;;4.40;99.90;;;;;;5071563;28;20050;-81
2021/12/04 14:28:20;;;;;;;55.53;21.85;;;4.50;99.90;;;;;;5054540;28;20051;-81
2021/12/04 14:30:47;;;;;;;58.83;20.73;;;4.40;99.90;;;;;;5055724;28;20554;-81
2021/12/04 14:33:22;;;;;;;59.60;21.02;;;4.40;99.90;;;;;;5075159;28;20075;-81
2021/12/04 14:35:50;;;;;;;56.67;21.23;;;4.50;99.90;;;;;;5075494;28;20399;-81
2021/12/04 14:38:19;;;;;;;63.40;23.42;;;4.40;99.90;;;;;;5075150;28;20051;-77
2021/12/04 14:40:55;;;;;;;61.90;21.70;;;4.50;99.90;;;;;;5058541;28;20074;-81
2021/12/04 14:43:26;;;;;;;67.68;22.17;;;4.50;99.90;;;;;;5058252;28;20055;-77
2021/12/04 14:45:56;;;;;;;62.42;23.77;;;4.60;99.90;;;;;;5058503;28;20566;-77
2021/12/04 14:48:27;;;;;;;72.47;25.83;;;4.50;99.90;;;;;;5058109;28;20123;-78
2021/12/04 14:51:02;;;;;;;76.95;27.15;;;4.50;99.90;;;;;;5058406;28;20495;-77
2021/12/04 14:53:28;;;;;;;68.15;26.50;;;4.50;99.90;;;;;;5074862;28;20388;-78
2021/12/04 14:55:54;;;;;;;81.32;25.98;;;4.40;99.90;;;;;;5058099;28;20094;-78
2021/12/04 14:58:23;;;;;;;76.07;26.30;;;4.40;99.90;;;;;;5041243;28;20075;-77
2021/12/04 15:01:02;;;;;;;79.68;26.55;;;4.40;99.90;;;;;;5057887;28;20047;-82
2021/12/04 15:03:37;;;;;;;75.93;28.20;;;4.30;99.90;;;;;;5057992;28;20075;-81
2021/12/04 15:06:05;;;;;;;76.10;28.30;;;4.40;99.90;;;;;;5074525;28;20052;-77
2021/12/04 15:08:34;;;;;;;146.95;55.63;;;4.20;99.90;;;;;;5058152;28;20502;-77
2021/12/04 15:11:07;;;;;;;88.18;29.83;;;4.60;99.90;;;;;;5057825;28;20070;-77
2021/12/04 15:13:37;;;;;;;95.65;32.00;;;4.40;99.90;;;;;;5074564;28;20041;-77
2021/12/04 15:16:07;;;;;;;110.43;37.53;;;4.30;99.90;;;;;;5057637;28;20049;-78
2021/12/04 15:18:38;;;;;;;129.63;42.25;;;4.40;99.90;;;;;;5057768;28;20040;-77
2021/12/04 15:21:07;;;;;;;133.75;41.88;;;4.40;99.90;;;;;;5041472;28;20043;-81
2021/12/04 15:23:36;;;;;;;140.05;40.22;;;4.30;99.90;;;;;;5074290;28;20036;-81
2021/12/04 15:26:16;;;;;;;140.88;35.47;;;4.40;99.90;;;;;;5074055;28;20087;-81
2021/12/04 15:28:49;;;;;;;127.07;33.10;;;4.40;99.90;;;;;;5057681;28;20364;-81
2021/12/04 15:31:17;;;;;;;147.70;32.47;;;4.30;99.90;;;;;;5074117;28;20046;-81
2021/12/04 15:33:46;;;;;;;105.43;31.23;;;4.40;99.90;;;;;;5074118;28;20055;-82
2021/12/04 15:36:27;;;;;;;162.50;45.67;;;4.40;99.90;;;;;;5073961;28;20105;-77
2021/12/04 15:38:56;;;;;;;162.18;45.05;;;4.40;99.90;;;;;;5074105;28;20110;-77
2021/12/04 15:41:56;;;;;;;149.70;42.15;;;4.40;99.90;;;;;;5074181;28;20406;-82
2021/12/04 15:44:45;;;;;;;157.82;36.45;;;4.40;99.90;;;;;;5074079;28;20601;-83
2021/12/04 15:50:44;;;;;;;194.02;38.72;;;4.40;99.90;;;;;;5074297;28;20044;-79